sensor_id;sensor_type;location;lat;lon;timestamp;pressure;altitude;pressure_sealevel;temperature;humidity
7441;BME280;29616;51.950;8.572;2023-02-12T00:01:51;102116.81;;;8.88;100.00
7441;BME280;29616;51.950;8.572;2023-02-12T00:04:19;102111.91;;;8.79;100.00
7441;BME280;29616;51.950;8.572;2023-02-12T00:06:49;102115.22;;;8.84;100.00
7441;BME280;29616;51.950;8.572;2023-02-12T00:09:18;102122.91;;;8.77;100.00
7441;BME280;29616;51.950;8.572;2023-02-12T00:11:46;102124.06;;;8.73;100.00
7441;BME280;29616;51.950;8.572;2023-02-12T00:14:16;102120.66;;;8.70;100.00
7441;BME280;29616;51.950;8.572;2023-02-12T00:16:47;102124.66;;;8.78;100.00
7441;BME280;29616;51.950;8.572;2023-02-12T00:19:15;102115.88;;;8.73;100.00
7441;BME280;29616;51.950;8.572;2023-02-12T00:21:43;102111.91;;;8.79;100.00
7441;BME280;29616;51.950;8.572;2023-02-12T00:24:14;102123.53;;;8.82;100.00
7441;BME280;29616;51.950;8.572;2023-02-12T00:26:43;102123.63;;;8.81;100.00
7441;BME280;29616;51.950;8.572;2023-02-12T00:29:11;102125.47;;;8.80;100.00
7441;BME280;29616;51.950;8.572;2023-02-12T00:31:40;102109.75;;;8.70;100.00
7441;BME280;29616;51.950;8.572;2023-02-12T00:34:10;102116.28;;;8.81;100.00
7441;BME280;29616;51.950;8.572;2023-02-12T00:36:40;102126.72;;;8.75;100.00
7441;BME280;29616;51.950;8.572;2023-02-12T00:39:10;102103.88;;;8.62;100.00
7441;BME280;29616;51.950;8.572;2023-02-12T00:41:41;102133.13;;;8.74;100.00
7441;BME280;29616;51.950;8.572;2023-02-12T00:44:09;102129.97;;;8.66;100.00
7441;BME280;29616;51.950;8.572;2023-02-12T00:46:39;102133.78;;;8.63;100.00
7441;BME280;29616;51.950;8.572;2023-02-12T00:49:08;102120.59;;;8.56;100.00
7441;BME280;29616;51.950;8.572;2023-02-12T00:51:37;102134.66;;;8.64;100.00
7441;BME280;29616;51.950;8.572;2023-02-12T00:54:09;102124.88;;;8.60;100.00
7441;BME280;29616;51.950;8.572;2023-02-12T00:56:40;102130.09;;;8.64;100.00
7441;BME280;29616;51.950;8.572;2023-02-12T00:59:09;102130.44;;;8.58;100.00
7441;BME280;29616;51.950;8.572;2023-02-12T01:01:37;102134.84;;;8.61;100.00
7441;BME280;29616;51.950;8.572;2023-02-12T01:04:06;102127.81;;;8.57;100.00
7441;BME280;29616;51.950;8.572;2023-02-12T01:06:36;102126.66;;;8.61;100.00
7441;BME280;29616;51.950;8.572;2023-02-12T01:09:05;102134.66;;;8.64;100.00
7441;BME280;29616;51.950;8.572;2023-02-12T01:11:35;102115.69;;;8.46;100.00
7441;BME280;29616;51.950;8.572;2023-02-12T01:14:07;102136.59;;;8.62;100.00
7441;BME280;29616;51.950;8.572;2023-02-12T01:16:38;102141.94;;;8.63;100.00
7441;BME280;29616;51.950;8.572;2023-02-12T01:19:10;102124.75;;;8.47;100.00
7441;BME280;29616;51.950;8.572;2023-02-12T01:21:39;102130.63;;;8.55;100.00
7441;BME280;29616;51.950;8.572;2023-02-12T01:24:08;102127.00;;;8.54;100.00
7441;BME280;29616;51.950;8.572;2023-02-12T01:26:36;102131.63;;;8.54;100.00
7441;BME280;29616;51.950;8.572;2023-02-12T01:29:09;102131.22;;;8.60;100.00
7441;BME280;29616;51.950;8.572;2023-02-12T01:31:38;102134.34;;;8.54;100.00
7441;BME280;29616;51.950;8.572;2023-02-12T01:34:10;102133.28;;;8.57;100.00
7441;BME280;29616;51.950;8.572;2023-02-12T01:36:39;102133.63;;;8.50;100.00
7441;BME280;29616;51.950;8.572;2023-02-12T01:39:09;102131.19;;;8.46;100.00
7441;BME280;29616;51.950;8.572;2023-02-12T01:41:41;102138.72;;;8.57;100.00
7441;BME280;29616;51.950;8.572;2023-02-12T01:44:16;102124.69;;;8.48;100.00
7441;BME280;29616;51.950;8.572;2023-02-12T01:46:48;102144.97;;;8.59;100.00
7441;BME280;29616;51.950;8.572;2023-02-12T01:49:21;102138.91;;;8.53;100.00
7441;BME280;29616;51.950;8.572;2023-02-12T01:51:55;102126.59;;;8.46;100.00
7441;BME280;29616;51.950;8.572;2023-02-12T01:54:28;102141.53;;;8.55;100.00
7441;BME280;29616;51.950;8.572;2023-02-12T01:57:00;102141.53;;;8.55;100.00
7441;BME280;29616;51.950;8.572;2023-02-12T01:59:32;102138.91;;;8.53;100.00
7441;BME280;29616;51.950;8.572;2023-02-12T02:02:04;102136.44;;;8.49;100.00
7441;BME280;29616;51.950;8.572;2023-02-12T02:04:37;102128.34;;;8.47;100.00
7441;BME280;29616;51.950;8.572;2023-02-12T02:07:10;102135.47;;;8.50;100.00
7441;BME280;29616;51.950;8.572;2023-02-12T02:09:39;102120.03;;;8.35;100.00
7441;BME280;29616;51.950;8.572;2023-02-12T02:12:11;102139.44;;;8.44;100.00
7441;BME280;29616;51.950;8.572;2023-02-12T02:15:00;102135.81;;;8.44;100.00
7441;BME280;29616;51.950;8.572;2023-02-12T02:17:46;102130.47;;;8.42;100.00
7441;BME280;29616;51.950;8.572;2023-02-12T02:20:47;102129.31;;;8.46;100.00
7441;BME280;29616;51.950;8.572;2023-02-12T02:23:38;102125.56;;;8.33;100.00
7441;BME280;29616;51.950;8.572;2023-02-12T02:26:38;102094.34;;;8.23;100.00
7441;BME280;29616;51.950;8.572;2023-02-12T02:29:31;102129.94;;;8.36;100.00
7441;BME280;29616;51.950;8.572;2023-02-12T02:32:12;102110.53;;;8.26;100.00
7441;BME280;29616;51.950;8.572;2023-02-12T02:34:52;102131.19;;;8.30;100.00
7441;BME280;29616;51.950;8.572;2023-02-12T02:37:28;102108.84;;;8.24;100.00
7441;BME280;29616;51.950;8.572;2023-02-12T02:40:08;102128.56;;;8.29;100.00
7441;BME280;29616;51.950;8.572;2023-02-12T02:42:43;102109.81;;;8.23;100.00
7441;BME280;29616;51.950;8.572;2023-02-12T02:45:19;102109.97;;;8.20;100.00
7441;BME280;29616;51.950;8.572;2023-02-12T02:47:56;102094.09;;;8.12;100.00
7441;BME280;29616;51.950;8.572;2023-02-12T02:50:29;102095.69;;;8.16;100.00
7441;BME280;29616;51.950;8.572;2023-02-12T02:53:04;102109.13;;;8.19;100.00
7441;BME280;29616;51.950;8.572;2023-02-12T02:55:37;102091.47;;;8.11;100.00
7441;BME280;29616;51.950;8.572;2023-02-12T02:58:13;102100.97;;;8.19;100.00
7441;BME280;29616;51.950;8.572;2023-02-12T03:00:47;102114.19;;;8.25;100.00
7441;BME280;29616;51.950;8.572;2023-02-12T03:03:28;102111.69;;;8.22;100.00
7441;BME280;29616;51.950;8.572;2023-02-12T03:06:03;102118.69;;;8.26;100.00
7441;BME280;29616;51.950;8.572;2023-02-12T03:08:38;102118.88;;;8.23;100.00
7441;BME280;29616;51.950;8.572;2023-02-12T03:11:13;102125.19;;;8.24;100.00
7441;BME280;29616;51.950;8.572;2023-02-12T03:13:47;102118.16;;;8.20;100.00
7441;BME280;29616;51.950;8.572;2023-02-12T03:16:22;102112.63;;;8.21;100.00
7441;BME280;29616;51.950;8.572;2023-02-12T03:19:00;102110.25;;;8.15;100.00
7441;BME280;29616;51.950;8.572;2023-02-12T03:21:34;102104.47;;;8.21;100.00
7441;BME280;29616;51.950;8.572;2023-02-12T03:24:12;102110.78;;;8.22;100.00
7441;BME280;29616;51.950;8.572;2023-02-12T03:26:48;102107.91;;;8.25;100.00
7441;BME280;29616;51.950;8.572;2023-02-12T03:29:19;102112.47;;;8.24;100.00
7441;BME280;29616;51.950;8.572;2023-02-12T03:32:02;102113.25;;;8.26;100.00
7441;BME280;29616;51.950;8.572;2023-02-12T03:34:46;102090.47;;;8.12;100.00
7441;BME280;29616;51.950;8.572;2023-02-12T03:37:23;102107.81;;;8.11;100.00
7441;BME280;29616;51.950;8.572;2023-02-12T03:39:57;102106.41;;;8.19;100.00
7441;BME280;29616;51.950;8.572;2023-02-12T03:42:35;102111.94;;;8.18;100.00
7441;BME280;29616;51.950;8.572;2023-02-12T03:45:14;102103.25;;;8.11;100.00
7441;BME280;29616;51.950;8.572;2023-02-12T03:47:50;102117.81;;;8.10;100.00
7441;BME280;29616;51.950;8.572;2023-02-12T03:50:31;102108.41;;;8.16;100.00
7441;BME280;29616;51.950;8.572;2023-02-12T03:53:01;102114.75;;;8.16;100.00
7441;BME280;29616;51.950;8.572;2023-02-12T03:55:31;102116.78;;;8.13;100.00
7441;BME280;29616;51.950;8.572;2023-02-12T03:58:09;102105.53;;;8.03;100.00
7441;BME280;29616;51.950;8.572;2023-02-12T04:00:39;102112.97;;;8.15;100.00
7441;BME280;29616;51.950;8.572;2023-02-12T04:03:08;102119.22;;;8.17;100.00
7441;BME280;29616;51.950;8.572;2023-02-12T04:05:38;102118.25;;;8.18;100.00
7441;BME280;29616;51.950;8.572;2023-02-12T04:08:10;102124.88;;;8.14;100.00
7441;BME280;29616;51.950;8.572;2023-02-12T04:10:54;102136.25;;;8.21;100.00
7441;BME280;29616;51.950;8.572;2023-02-12T04:13:32;102138.94;;;8.22;100.00
7441;BME280;29616;51.950;8.572;2023-02-12T04:16:19;102124.16;;;8.11;100.00
7441;BME280;29616;51.950;8.572;2023-02-12T04:18:52;102147.94;;;8.07;100.00
7441;BME280;29616;51.950;8.572;2023-02-12T04:21:37;102144.19;;;8.10;100.00
7441;BME280;29616;51.950;8.572;2023-02-12T04:24:17;102129.22;;;8.01;100.00
7441;BME280;29616;51.950;8.572;2023-02-12T04:26:51;102145.69;;;8.00;100.00
7441;BME280;29616;51.950;8.572;2023-02-12T04:29:30;102146.81;;;8.11;100.00
7441;BME280;29616;51.950;8.572;2023-02-12T04:32:06;102140.78;;;8.06;100.00
7441;BME280;29616;51.950;8.572;2023-02-12T04:34:46;102167.28;;;8.18;100.00
7441;BME280;29616;51.950;8.572;2023-02-12T04:37:23;102147.78;;;8.10;100.00
7441;BME280;29616;51.950;8.572;2023-02-12T04:39:53;102168.25;;;8.17;100.00
7441;BME280;29616;51.950;8.572;2023-02-12T04:42:22;102167.19;;;8.20;100.00
7441;BME280;29616;51.950;8.572;2023-02-12T04:44:53;102158.69;;;8.10;100.00
7441;BME280;29616;51.950;8.572;2023-02-12T04:47:22;102172.13;;;8.13;100.00
7441;BME280;29616;51.950;8.572;2023-02-12T04:49:53;102179.34;;;8.14;100.00
7441;BME280;29616;51.950;8.572;2023-02-12T04:52:25;102183.75;;;8.17;100.00
7441;BME280;29616;51.950;8.572;2023-02-12T04:54:56;102177.22;;;8.19;100.00
7441;BME280;29616;51.950;8.572;2023-02-12T04:57:24;102177.56;;;8.13;100.00
7441;BME280;29616;51.950;8.572;2023-02-12T04:59:53;102165.44;;;8.03;100.00
7441;BME280;29616;51.950;8.572;2023-02-12T05:02:21;102178.47;;;8.14;100.00
7441;BME280;29616;51.950;8.572;2023-02-12T05:04:51;102176.53;;;8.16;100.00
7441;BME280;29616;51.950;8.572;2023-02-12T05:07:21;102175.63;;;8.15;100.00
7441;BME280;29616;51.950;8.572;2023-02-12T05:09:53;102172.13;;;8.13;100.00
7441;BME280;29616;51.950;8.572;2023-02-12T05:12:22;102179.59;;;8.10;100.00
7441;BME280;29616;51.950;8.572;2023-02-12T05:14:52;102177.75;;;8.10;100.00
7441;BME280;29616;51.950;8.572;2023-02-12T05:17:22;102175.34;;;8.04;100.00
7441;BME280;29616;51.950;8.572;2023-02-12T05:19:51;102181.06;;;8.00;100.00
7441;BME280;29616;51.950;8.572;2023-02-12T05:22:21;102183.28;;;8.09;100.00
7441;BME280;29616;51.950;8.572;2023-02-12T05:24:49;102176.25;;;8.05;100.00
7441;BME280;29616;51.950;8.572;2023-02-12T05:27:18;102178.00;;;8.06;100.00
7441;BME280;29616;51.950;8.572;2023-02-12T05:29:48;102183.28;;;8.09;100.00
7441;BME280;29616;51.950;8.572;2023-02-12T05:32:16;102179.69;;;8.08;100.00
7441;BME280;29616;51.950;8.572;2023-02-12T05:34:45;102175.34;;;8.04;100.00
7441;BME280;29616;51.950;8.572;2023-02-12T05:37:14;102178.19;;;8.03;100.00
7441;BME280;29616;51.950;8.572;2023-02-12T05:39:44;102177.03;;;8.07;100.00
7441;BME280;29616;51.950;8.572;2023-02-12T05:42:13;102176.59;;;7.99;100.00
7441;BME280;29616;51.950;8.572;2023-02-12T05:44:44;102182.56;;;8.05;100.00
7441;BME280;29616;51.950;8.572;2023-02-12T05:47:12;102176.50;;;8.00;100.00
7441;BME280;29616;51.950;8.572;2023-02-12T05:49:43;102172.63;;;8.04;100.00
7441;BME280;29616;51.950;8.572;2023-02-12T05:52:12;102180.91;;;8.03;100.00
7441;BME280;29616;51.950;8.572;2023-02-12T05:54:43;102180.03;;;8.02;100.00
7441;BME280;29616;51.950;8.572;2023-02-12T05:57:11;102185.31;;;8.05;100.00
7441;BME280;29616;51.950;8.572;2023-02-12T05:59:41;102184.16;;;8.09;100.00
7441;BME280;29616;51.950;8.572;2023-02-12T06:02:11;102185.47;;;8.02;100.00
7441;BME280;29616;51.950;8.572;2023-02-12T06:04:39;102185.56;;;8.01;100.00
7441;BME280;29616;51.950;8.572;2023-02-12T06:07:08;102179.84;;;8.05;100.00
7441;BME280;29616;51.950;8.572;2023-02-12T06:09:37;102168.06;;;7.89;100.00
7441;BME280;29616;51.950;8.572;2023-02-12T06:12:05;102178.06;;;7.88;100.00
7441;BME280;29616;51.950;8.572;2023-02-12T06:14:35;102185.81;;;7.96;100.00
7441;BME280;29616;51.950;8.572;2023-02-12T06:17:03;102182.28;;;7.94;100.00
7441;BME280;29616;51.950;8.572;2023-02-12T06:19:35;102165.34;;;7.89;100.00
7441;BME280;29616;51.950;8.572;2023-02-12T06:22:03;102176.69;;;7.97;100.00
7441;BME280;29616;51.950;8.572;2023-02-12T06:24:33;102171.50;;;7.92;100.00
7441;BME280;29616;51.950;8.572;2023-02-12T06:27:03;102189.50;;;7.95;100.00
7441;BME280;29616;51.950;8.572;2023-02-12T06:29:33;102186.84;;;7.78;100.00
7441;BME280;29616;51.950;8.572;2023-02-12T06:32:03;102189.06;;;7.87;100.00
7441;BME280;29616;51.950;8.572;2023-02-12T06:34:37;102185.56;;;7.85;100.00
7441;BME280;29616;51.950;8.572;2023-02-12T06:37:05;102182.28;;;7.78;100.00
7441;BME280;29616;51.950;8.572;2023-02-12T06:39:34;102193.53;;;7.88;100.00
7441;BME280;29616;51.950;8.572;2023-02-12T06:42:04;102192.41;;;7.92;100.00
7441;BME280;29616;51.950;8.572;2023-02-12T06:44:35;102197.91;;;7.90;100.00
7441;BME280;29616;51.950;8.572;2023-02-12T06:47:04;102193.34;;;7.91;100.00
7441;BME280;29616;51.950;8.572;2023-02-12T06:49:34;102197.66;;;7.79;100.00
7441;BME280;29616;51.950;8.572;2023-02-12T06:52:03;102198.19;;;7.86;100.00
7441;BME280;29616;51.950;8.572;2023-02-12T06:54:34;102195.78;;;7.80;100.00
7441;BME280;29616;51.950;8.572;2023-02-12T06:57:02;102199.16;;;7.85;100.00
7441;BME280;29616;51.950;8.572;2023-02-12T06:59:33;102209.63;;;7.92;100.00
7441;BME280;29616;51.950;8.572;2023-02-12T07:02:01;102204.63;;;7.85;100.00
7441;BME280;29616;51.950;8.572;2023-02-12T07:04:29;102210.72;;;7.73;100.00
7441;BME280;29616;51.950;8.572;2023-02-12T07:06:58;102212.22;;;7.78;100.00
7441;BME280;29616;51.950;8.572;2023-02-12T07:09:29;102204.47;;;7.71;100.00
7441;BME280;29616;51.950;8.572;2023-02-12T07:11:59;102221.56;;;7.90;100.00
7441;BME280;29616;51.950;8.572;2023-02-12T07:14:27;102225.56;;;7.83;100.00
7441;BME280;29616;51.950;8.572;2023-02-12T07:17:00;102228.84;;;7.89;100.00
7441;BME280;29616;51.950;8.572;2023-02-12T07:19:30;102228.28;;;7.83;100.00
7441;BME280;29616;51.950;8.572;2023-02-12T07:22:02;102232.00;;;7.82;100.00
7441;BME280;29616;51.950;8.572;2023-02-12T07:24:34;102236.00;;;7.75;100.00
7441;BME280;29616;51.950;8.572;2023-02-12T07:27:03;102244.63;;;7.83;100.00
7441;BME280;29616;51.950;8.572;2023-02-12T07:29:32;102241.25;;;7.95;100.00
7441;BME280;29616;51.950;8.572;2023-02-12T07:32:03;102248.09;;;8.02;100.00
7441;BME280;29616;51.950;8.572;2023-02-12T07:34:32;102242.03;;;7.97;100.00
7441;BME280;29616;51.950;8.572;2023-02-12T07:37:00;102254.25;;;7.90;100.00
7441;BME280;29616;51.950;8.572;2023-02-12T07:39:28;102262.59;;;8.03;100.00
7441;BME280;29616;51.950;8.572;2023-02-12T07:42:00;102263.50;;;8.03;100.00
7441;BME280;29616;51.950;8.572;2023-02-12T07:44:32;102264.72;;;7.98;100.00
7441;BME280;29616;51.950;8.572;2023-02-12T07:47:03;102265.06;;;8.07;100.00
7441;BME280;29616;51.950;8.572;2023-02-12T07:49:33;102262.00;;;8.13;100.00
7441;BME280;29616;51.950;8.572;2023-02-12T07:52:03;102267.28;;;8.16;100.00
7441;BME280;29616;51.950;8.572;2023-02-12T07:54:33;102275.47;;;8.16;100.00
7441;BME280;29616;51.950;8.572;2023-02-12T07:57:05;102272.13;;;8.11;100.00
7441;BME280;29616;51.950;8.572;2023-02-12T07:59:33;102271.13;;;8.12;100.00
7441;BME280;29616;51.950;8.572;2023-02-12T08:02:03;102275.50;;;7.99;100.00
7441;BME280;29616;51.950;8.572;2023-02-12T08:04:32;102275.78;;;8.10;100.00
7441;BME280;29616;51.950;8.572;2023-02-12T08:07:01;102271.28;;;7.93;100.00
7441;BME280;29616;51.950;8.572;2023-02-12T08:09:33;102268.41;;;8.12;100.00
7441;BME280;29616;51.950;8.572;2023-02-12T08:12:04;102279.16;;;8.15;100.00
7441;BME280;29616;51.950;8.572;2023-02-12T08:14:34;102272.66;;;8.18;100.00
7441;BME280;29616;51.950;8.572;2023-02-12T08:17:04;102282.50;;;8.20;100.00
7441;BME280;29616;51.950;8.572;2023-02-12T08:19:35;102281.44;;;8.23;100.00
7441;BME280;29616;51.950;8.572;2023-02-12T08:22:06;102289.31;;;8.29;100.00
7441;BME280;29616;51.950;8.572;2023-02-12T08:24:36;102271.59;;;8.20;100.00
7441;BME280;29616;51.950;8.572;2023-02-12T08:27:05;102297.31;;;8.32;100.00
7441;BME280;29616;51.950;8.572;2023-02-12T08:29:33;102296.44;;;8.31;100.00
7441;BME280;29616;51.950;8.572;2023-02-12T08:32:04;102285.91;;;8.08;100.00
7441;BME280;29616;51.950;8.572;2023-02-12T08:34:37;102293.38;;;8.37;100.00
7441;BME280;29616;51.950;8.572;2023-02-12T08:37:08;102284.03;;;8.41;100.00
7441;BME280;29616;51.950;8.572;2023-02-12T08:39:38;102301.22;;;8.43;100.00
7441;BME280;29616;51.950;8.572;2023-02-12T08:42:10;102301.56;;;8.53;100.00
7441;BME280;29616;51.950;8.572;2023-02-12T08:44:38;102310.69;;;8.52;100.00
7441;BME280;29616;51.950;8.572;2023-02-12T08:47:07;102304.19;;;8.54;100.00
7441;BME280;29616;51.950;8.572;2023-02-12T08:49:37;102306.56;;;8.61;100.00
7441;BME280;29616;51.950;8.572;2023-02-12T08:52:06;102302.69;;;8.49;100.00
7441;BME280;29616;51.950;8.572;2023-02-12T08:54:36;102299.44;;;8.74;100.00
7441;BME280;29616;51.950;8.572;2023-02-12T08:57:09;102304.28;;;8.84;100.00
7441;BME280;29616;51.950;8.572;2023-02-12T08:59:39;102303.38;;;8.84;100.00
7441;BME280;29616;51.950;8.572;2023-02-12T09:02:09;102317.72;;;8.87;100.00
7441;BME280;29616;51.950;8.572;2023-02-12T09:04:37;102309.44;;;8.89;100.00
7441;BME280;29616;51.950;8.572;2023-02-12T09:07:09;102310.53;;;9.02;100.00
7441;BME280;29616;51.950;8.572;2023-02-12T09:09:39;102318.75;;;9.16;100.00
7441;BME280;29616;51.950;8.572;2023-02-12T09:12:10;102313.25;;;9.02;100.00
7441;BME280;29616;51.950;8.572;2023-02-12T09:14:40;102315.78;;;9.05;100.00
7441;BME280;29616;51.950;8.572;2023-02-12T09:17:09;102315.97;;;9.02;100.00
7441;BME280;29616;51.950;8.572;2023-02-12T09:19:38;102316.50;;;8.93;100.00
7441;BME280;29616;51.950;8.572;2023-02-12T09:22:08;102309.81;;;8.98;100.00
7441;BME280;29616;51.950;8.572;2023-02-12T09:24:38;102310.19;;;8.77;100.00
7441;BME280;29616;51.950;8.572;2023-02-12T09:27:11;102315.81;;;8.74;100.00
7441;BME280;29616;51.950;8.572;2023-02-12T09:29:39;102318.78;;;8.85;100.00
7441;BME280;29616;51.950;8.572;2023-02-12T09:32:10;102327.41;;;8.93;100.00
7441;BME280;29616;51.950;8.572;2023-02-12T09:34:39;102329.25;;;9.08;100.00
7441;BME280;29616;51.950;8.572;2023-02-12T09:37:07;102328.63;;;9.03;100.00
7441;BME280;29616;51.950;8.572;2023-02-12T09:39:35;102328.34;;;9.23;100.00
7441;BME280;29616;51.950;8.572;2023-02-12T09:42:25;102312.72;;;9.41;100.00
7441;BME280;29616;51.950;8.572;2023-02-12T09:45:06;102330.25;;;9.66;100.00
7441;BME280;29616;51.950;8.572;2023-02-12T09:47:43;102330.38;;;9.79;100.00
7441;BME280;29616;51.950;8.572;2023-02-12T09:50:32;102336.09;;;9.74;100.00
7441;BME280;29616;51.950;8.572;2023-02-12T09:53:11;102325.00;;;9.48;100.00
7441;BME280;29616;51.950;8.572;2023-02-12T09:55:44;102341.31;;;9.79;100.00
7441;BME280;29616;51.950;8.572;2023-02-12T09:58:28;102340.97;;;9.69;100.00
7441;BME280;29616;51.950;8.572;2023-02-12T10:01:00;102342.56;;;9.73;100.00
7441;BME280;29616;51.950;8.572;2023-02-12T10:03:30;102336.53;;;9.83;100.00
7441;BME280;29616;51.950;8.572;2023-02-12T10:06:02;102322.22;;;9.63;100.00
7441;BME280;29616;51.950;8.572;2023-02-12T10:08:57;102337.50;;;9.82;100.00
7441;BME280;29616;51.950;8.572;2023-02-12T10:11:52;102324.03;;;9.93;100.00
7441;BME280;29616;51.950;8.572;2023-02-12T10:14:56;102320.78;;;10.30;100.00
7441;BME280;29616;51.950;8.572;2023-02-12T10:17:36;102323.91;;;10.52;100.00
7441;BME280;29616;51.950;8.572;2023-02-12T10:20:37;102326.94;;;10.33;100.00
7441;BME280;29616;51.950;8.572;2023-02-12T10:23:51;102334.38;;;10.46;100.00
7441;BME280;29616;51.950;8.572;2023-02-12T10:26:29;102341.88;;;10.42;100.00
7441;BME280;29616;51.950;8.572;2023-02-12T10:29:14;102345.88;;;10.37;100.00
7441;BME280;29616;51.950;8.572;2023-02-12T10:31:49;102345.41;;;10.44;100.00
7441;BME280;29616;51.950;8.572;2023-02-12T10:34:24;102333.41;;;10.32;100.00
7441;BME280;29616;51.950;8.572;2023-02-12T10:37:01;102338.06;;;10.45;100.00
7441;BME280;29616;51.950;8.572;2023-02-12T10:39:35;102343.66;;;10.29;100.00
7441;BME280;29616;51.950;8.572;2023-02-12T10:42:11;102343.38;;;9.90;100.00
7441;BME280;29616;51.950;8.572;2023-02-12T10:44:44;102340.25;;;9.82;100.00
7441;BME280;29616;51.950;8.572;2023-02-12T10:47:20;102338.44;;;9.66;100.00
7441;BME280;29616;51.950;8.572;2023-02-12T10:49:54;102336.84;;;9.92;100.00
7441;BME280;29616;51.950;8.572;2023-02-12T10:52:35;102336.44;;;10.14;100.00
7441;BME280;29616;51.950;8.572;2023-02-12T10:55:27;102341.34;;;10.07;100.00
7441;BME280;29616;51.950;8.572;2023-02-12T10:57:59;102340.47;;;10.07;100.00
7441;BME280;29616;51.950;8.572;2023-02-12T11:00:32;102334.00;;;9.94;100.00
7441;BME280;29616;51.950;8.572;2023-02-12T11:03:19;102314.41;;;10.01;100.00
7441;BME280;29616;51.950;8.572;2023-02-12T11:05:48;102332.22;;;10.22;100.00
7441;BME280;29616;51.950;8.572;2023-02-12T11:08:34;102320.09;;;10.12;100.00
7441;BME280;29616;51.950;8.572;2023-02-12T11:11:10;102324.66;;;10.12;100.00
7441;BME280;29616;51.950;8.572;2023-02-12T11:13:43;102318.41;;;10.10;100.00
7441;BME280;29616;51.950;8.572;2023-02-12T11:16:27;102326.91;;;10.05;100.00
7441;BME280;29616;51.950;8.572;2023-02-12T11:19:01;102322.72;;;10.00;100.00
7441;BME280;29616;51.950;8.572;2023-02-12T11:21:34;102324.44;;;9.87;100.00
7441;BME280;29616;51.950;8.572;2023-02-12T11:24:31;102324.03;;;9.79;100.00
7441;BME280;29616;51.950;8.572;2023-02-12T11:27:20;102325.81;;;9.94;100.00
7441;BME280;29616;51.950;8.572;2023-02-12T11:30:16;102322.72;;;10.00;100.00
7441;BME280;29616;51.950;8.572;2023-02-12T11:32:45;102316.13;;;10.18;100.00
7441;BME280;29616;51.950;8.572;2023-02-12T11:35:19;102299.81;;;10.30;100.00
7441;BME280;29616;51.950;8.572;2023-02-12T11:37:54;102307.88;;;10.46;100.00
7441;BME280;29616;51.950;8.572;2023-02-12T11:40:27;102301.13;;;10.66;100.00
7441;BME280;29616;51.950;8.572;2023-02-12T11:43:01;102309.53;;;10.49;100.00
7441;BME280;29616;51.950;8.572;2023-02-12T11:45:35;102306.78;;;10.63;100.00
7441;BME280;29616;51.950;8.572;2023-02-12T11:48:16;102297.31;;;10.68;100.00
7441;BME280;29616;51.950;8.572;2023-02-12T11:50:51;102303.22;;;10.89;100.00
7441;BME280;29616;51.950;8.572;2023-02-12T11:53:23;102285.34;;;10.83;100.00
7441;BME280;29616;51.950;8.572;2023-02-12T11:55:58;102296.47;;;10.94;100.00
7441;BME280;29616;51.950;8.572;2023-02-12T11:58:28;102293.63;;;10.96;100.00
7441;BME280;29616;51.950;8.572;2023-02-12T12:01:09;102296.47;;;10.94;100.00
7441;BME280;29616;51.950;8.572;2023-02-12T12:03:53;102284.72;;;10.66;100.00
7441;BME280;29616;51.950;8.572;2023-02-12T12:06:33;102280.13;;;10.66;100.00
7441;BME280;29616;51.950;8.572;2023-02-12T12:09:10;102291.81;;;10.82;100.00
7441;BME280;29616;51.950;8.572;2023-02-12T12:11:56;102279.69;;;10.86;100.00
7441;BME280;29616;51.950;8.572;2023-02-12T12:14:30;102278.03;;;10.84;100.00
7441;BME280;29616;51.950;8.572;2023-02-12T12:17:37;102291.41;;;10.48;100.00
7441;BME280;29616;51.950;8.572;2023-02-12T12:20:29;102288.16;;;10.41;100.00
7441;BME280;29616;51.950;8.572;2023-02-12T12:23:08;102276.63;;;10.64;100.00
7441;BME280;29616;51.950;8.572;2023-02-12T12:25:44;102278.75;;;10.59;100.00
7441;BME280;29616;51.950;8.572;2023-02-12T12:28:27;102282.31;;;10.61;100.00
7441;BME280;29616;51.950;8.572;2023-02-12T12:31:05;102277.81;;;10.46;100.00
7441;BME280;29616;51.950;8.572;2023-02-12T12:33:43;102263.56;;;10.41;100.00
7441;BME280;29616;51.950;8.572;2023-02-12T12:39:36;102280.44;;;10.88;100.00
7441;BME280;29616;51.950;8.572;2023-02-12T12:45:55;102257.03;;;10.84;100.00
7441;BME280;29616;51.950;8.572;2023-02-12T12:48:52;102254.03;;;11.02;100.00
7441;BME280;29616;51.950;8.572;2023-02-12T12:51:55;102260.16;;;11.05;100.00
7441;BME280;29616;51.950;8.572;2023-02-12T12:54:47;102247.25;;;11.07;100.00
7441;BME280;29616;51.950;8.572;2023-02-12T12:57:49;102254.81;;;11.04;100.00
7441;BME280;29616;51.950;8.572;2023-02-12T13:00:40;102252.69;;;11.34;100.00
7441;BME280;29616;51.950;8.572;2023-02-12T13:03:47;102240.56;;;11.63;100.00
7441;BME280;29616;51.950;8.572;2023-02-12T13:06:45;102243.88;;;11.68;100.00
7441;BME280;29616;51.950;8.572;2023-02-12T13:09:51;102239.19;;;11.95;100.00
7441;BME280;29616;51.950;8.572;2023-02-12T13:12:44;102242.56;;;12.11;100.00
7441;BME280;29616;51.950;8.572;2023-02-12T13:15:25;102246.38;;;12.22;100.00
7441;BME280;29616;51.950;8.572;2023-02-12T13:18:03;102235.44;;;12.09;100.00
7441;BME280;29616;51.950;8.572;2023-02-12T13:20:46;102200.44;;;11.76;100.00
7441;BME280;29616;51.950;8.572;2023-02-12T13:23:21;102228.09;;;12.22;100.00
7441;BME280;29616;51.950;8.572;2023-02-12T13:26:01;102206.97;;;11.99;100.00
7441;BME280;29616;51.950;8.572;2023-02-12T13:28:37;102212.00;;;11.92;100.00
7441;BME280;29616;51.950;8.572;2023-02-12T13:31:13;102170.81;;;11.81;100.00
7441;BME280;29616;51.950;8.572;2023-02-12T13:34:01;102182.88;;;12.28;100.00
7441;BME280;29616;51.950;8.572;2023-02-12T13:36:35;102233.19;;;12.75;100.00
7441;BME280;29616;51.950;8.572;2023-02-12T13:39:14;102225.59;;;12.55;100.00
7441;BME280;29616;51.950;8.572;2023-02-12T13:41:57;102231.22;;;12.41;100.00
7441;BME280;29616;51.950;8.572;2023-02-12T13:44:37;102236.78;;;12.52;100.00